sensor_id;sensor_type;location;lat;lon;timestamp;pressure;altitude;pressure_sealevel;temperature;humidity
44351;BME280;62766;62.622;17.912;2023-03-14T00:00:41;96397.44;;;1.67;74.49
44351;BME280;62766;62.622;17.912;2023-03-14T00:03:10;96400.80;;;1.70;73.93
44351;BME280;62766;62.622;17.912;2023-03-14T00:05:38;96399.25;;;1.85;73.42
44351;BME280;62766;62.622;17.912;2023-03-14T00:08:07;96401.95;;;1.86;73.08
44351;BME280;62766;62.622;17.912;2023-03-14T00:10:36;96400.11;;;1.97;72.94
44351;BME280;62766;62.622;17.912;2023-03-14T00:13:04;96396.19;;;2.05;72.60
44351;BME280;62766;62.622;17.912;2023-03-14T00:15:33;96393.56;;;2.01;72.22
44351;BME280;62766;62.622;17.912;2023-03-14T00:18:01;96392.73;;;2.13;71.70
44351;BME280;62766;62.622;17.912;2023-03-14T00:20:29;96396.25;;;2.18;71.71
44351;BME280;62766;62.622;17.912;2023-03-14T00:22:57;96393.90;;;2.08;71.29
44351;BME280;62766;62.622;17.912;2023-03-14T00:25:26;96389.62;;;2.12;71.14
44351;BME280;62766;62.622;17.912;2023-03-14T00:27:55;96393.92;;;2.22;70.70
44351;BME280;62766;62.622;17.912;2023-03-14T00:30:23;96390.75;;;2.18;70.47
44351;BME280;62766;62.622;17.912;2023-03-14T00:32:51;96389.74;;;2.05;70.53
44351;BME280;62766;62.622;17.912;2023-03-14T00:35:19;96388.66;;;2.16;70.60
44351;BME280;62766;62.622;17.912;2023-03-14T00:37:48;96387.20;;;2.11;70.43
44351;BME280;62766;62.622;17.912;2023-03-14T00:40:16;96380.79;;;2.07;70.47
44351;BME280;62766;62.622;17.912;2023-03-14T00:42:45;96374.46;;;2.06;70.45
44351;BME280;62766;62.622;17.912;2023-03-14T00:45:13;96373.89;;;1.98;70.63
44351;BME280;62766;62.622;17.912;2023-03-14T00:47:41;96373.05;;;2.11;70.49
44351;BME280;62766;62.622;17.912;2023-03-14T00:50:10;96372.06;;;1.92;70.37
44351;BME280;62766;62.622;17.912;2023-03-14T00:52:38;96375.12;;;1.98;70.31
44351;BME280;62766;62.622;17.912;2023-03-14T00:55:07;96373.25;;;1.94;70.35
44351;BME280;62766;62.622;17.912;2023-03-14T00:57:35;96369.58;;;1.80;70.46
44351;BME280;62766;62.622;17.912;2023-03-14T01:00:05;96369.62;;;1.97;70.47
44351;BME280;62766;62.622;17.912;2023-03-14T01:02:34;96365.73;;;1.80;70.52
44351;BME280;62766;62.622;17.912;2023-03-14T01:05:03;96368.32;;;1.79;70.89
44351;BME280;62766;62.622;17.912;2023-03-14T01:07:31;96372.25;;;1.77;71.08
44351;BME280;62766;62.622;17.912;2023-03-14T01:09:59;96371.67;;;1.85;71.11
44351;BME280;62766;62.622;17.912;2023-03-14T01:12:28;96370.19;;;1.68;71.36
44351;BME280;62766;62.622;17.912;2023-03-14T01:14:56;96366.06;;;1.83;71.29
44351;BME280;62766;62.622;17.912;2023-03-14T01:17:24;96360.33;;;1.69;71.14
44351;BME280;62766;62.622;17.912;2023-03-14T01:19:54;96354.91;;;1.70;71.32
44351;BME280;62766;62.622;17.912;2023-03-14T01:22:23;96350.42;;;1.81;71.09
44351;BME280;62766;62.622;17.912;2023-03-14T01:24:52;96344.45;;;1.65;71.13
44351;BME280;62766;62.622;17.912;2023-03-14T01:27:22;96335.01;;;1.67;71.04
44351;BME280;62766;62.622;17.912;2023-03-14T01:29:50;96335.96;;;1.64;71.01
44351;BME280;62766;62.622;17.912;2023-03-14T01:32:19;96337.81;;;1.69;70.81
44351;BME280;62766;62.622;17.912;2023-03-14T01:34:47;96338.68;;;1.76;70.69
44351;BME280;62766;62.622;17.912;2023-03-14T01:37:15;96330.15;;;1.77;70.50
44351;BME280;62766;62.622;17.912;2023-03-14T01:39:46;96334.25;;;1.71;70.57
44351;BME280;62766;62.622;17.912;2023-03-14T01:42:14;96338.13;;;1.71;70.42
44351;BME280;62766;62.622;17.912;2023-03-14T01:44:48;96340.83;;;1.71;70.15
44351;BME280;62766;62.622;17.912;2023-03-14T01:47:16;96340.28;;;1.65;70.16
44351;BME280;62766;62.622;17.912;2023-03-14T01:49:46;96345.69;;;1.70;70.29
44351;BME280;62766;62.622;17.912;2023-03-14T01:52:19;96345.19;;;1.55;70.35
44351;BME280;62766;62.622;17.912;2023-03-14T01:54:53;96343.08;;;1.57;70.30
44351;BME280;62766;62.622;17.912;2023-03-14T01:57:28;96344.12;;;1.60;70.25
44351;BME280;62766;62.622;17.912;2023-03-14T02:00:01;96349.23;;;1.67;70.29
44351;BME280;62766;62.622;17.912;2023-03-14T02:02:32;96350.93;;;1.50;70.48
44351;BME280;62766;62.622;17.912;2023-03-14T02:05:00;96345.14;;;1.47;70.38
44351;BME280;62766;62.622;17.912;2023-03-14T02:07:34;96344.78;;;1.33;70.37
44351;BME280;62766;62.622;17.912;2023-03-14T02:10:07;96340.71;;;1.48;70.53
44351;BME280;62766;62.622;17.912;2023-03-14T02:12:36;96355.07;;;1.53;70.65
44351;BME280;62766;62.622;17.912;2023-03-14T02:15:07;96359.25;;;1.47;70.38
44351;BME280;62766;62.622;17.912;2023-03-14T02:17:36;96361.54;;;1.47;70.41
44351;BME280;62766;62.622;17.912;2023-03-14T02:20:15;96369.29;;;1.41;70.32
44351;BME280;62766;62.622;17.912;2023-03-14T02:22:45;96375.91;;;1.30;70.35
44351;BME280;62766;62.622;17.912;2023-03-14T02:25:20;96382.87;;;1.27;70.21
44351;BME280;62766;62.622;17.912;2023-03-14T02:27:55;96391.51;;;1.36;70.03
44351;BME280;62766;62.622;17.912;2023-03-14T02:30:27;96396.94;;;1.41;70.23
44351;BME280;62766;62.622;17.912;2023-03-14T02:32:59;96404.14;;;1.35;70.11
44351;BME280;62766;62.622;17.912;2023-03-14T02:35:34;96409.34;;;1.34;70.09
44351;BME280;62766;62.622;17.912;2023-03-14T02:38:09;96411.00;;;1.35;70.04
44351;BME280;62766;62.622;17.912;2023-03-14T02:40:41;96413.61;;;1.31;70.06
44351;BME280;62766;62.622;17.912;2023-03-14T02:43:09;96411.73;;;1.30;70.06
44351;BME280;62766;62.622;17.912;2023-03-14T02:45:41;96417.39;;;1.45;69.98
44351;BME280;62766;62.622;17.912;2023-03-14T02:48:14;96419.05;;;1.39;69.76
44351;BME280;62766;62.622;17.912;2023-03-14T02:50:45;96418.71;;;1.37;69.24
44351;BME280;62766;62.622;17.912;2023-03-14T02:53:17;96422.24;;;1.45;69.10
44351;BME280;62766;62.622;17.912;2023-03-14T02:55:48;96421.88;;;1.34;69.16
44351;BME280;62766;62.622;17.912;2023-03-14T02:58:18;96425.09;;;1.27;69.30
44351;BME280;62766;62.622;17.912;2023-03-14T03:00:48;96425.02;;;1.04;69.48
44351;BME280;62766;62.622;17.912;2023-03-14T03:03:16;96430.70;;;1.15;69.44
44351;BME280;62766;62.622;17.912;2023-03-14T03:05:48;96427.26;;;1.16;69.67
44351;BME280;62766;62.622;17.912;2023-03-14T03:08:17;96436.59;;;1.03;69.66
44351;BME280;62766;62.622;17.912;2023-03-14T03:10:47;96437.04;;;1.10;69.58
44351;BME280;62766;62.622;17.912;2023-03-14T03:13:18;96431.96;;;1.09;69.13
44351;BME280;62766;62.622;17.912;2023-03-14T03:15:47;96428.01;;;0.88;69.42
44351;BME280;62766;62.622;17.912;2023-03-14T03:18:15;96427.94;;;1.00;69.15
44351;BME280;62766;62.622;17.912;2023-03-14T03:20:44;96432.78;;;0.85;69.17
44351;BME280;62766;62.622;17.912;2023-03-14T03:23:12;96437.23;;;0.92;69.11
44351;BME280;62766;62.622;17.912;2023-03-14T03:25:41;96441.40;;;0.95;68.77
44351;BME280;62766;62.622;17.912;2023-03-14T03:28:09;96448.56;;;0.88;68.61
44351;BME280;62766;62.622;17.912;2023-03-14T03:30:38;96450.63;;;0.87;68.51
44351;BME280;62766;62.622;17.912;2023-03-14T03:33:06;96459.08;;;0.82;68.37
44351;BME280;62766;62.622;17.912;2023-03-14T03:35:34;96459.55;;;0.84;68.29
44351;BME280;62766;62.622;17.912;2023-03-14T03:38:03;96464.10;;;0.77;68.15
44351;BME280;62766;62.622;17.912;2023-03-14T03:40:31;96473.55;;;0.77;67.94
44351;BME280;62766;62.622;17.912;2023-03-14T03:43:00;96474.13;;;0.87;67.80
44351;BME280;62766;62.622;17.912;2023-03-14T03:45:28;96471.28;;;0.92;67.28
44351;BME280;62766;62.622;17.912;2023-03-14T03:47:57;96472.75;;;0.81;67.17
44351;BME280;62766;62.622;17.912;2023-03-14T03:50:25;96478.64;;;0.96;66.63
44351;BME280;62766;62.622;17.912;2023-03-14T03:52:54;96494.04;;;0.79;66.21
44351;BME280;62766;62.622;17.912;2023-03-14T03:55:24;96502.43;;;0.93;66.24
44351;BME280;62766;62.622;17.912;2023-03-14T03:57:52;96505.21;;;0.92;66.09
44351;BME280;62766;62.622;17.912;2023-03-14T04:00:21;96501.06;;;0.88;66.00
44351;BME280;62766;62.622;17.912;2023-03-14T04:02:49;96509.15;;;0.93;65.92
44351;BME280;62766;62.622;17.912;2023-03-14T04:05:17;96516.07;;;0.87;65.70
44351;BME280;62766;62.622;17.912;2023-03-14T04:07:46;96524.83;;;0.85;65.48
44351;BME280;62766;62.622;17.912;2023-03-14T04:10:14;96523.28;;;0.75;65.51
44351;BME280;62766;62.622;17.912;2023-03-14T04:12:43;96519.66;;;0.80;65.32
44351;BME280;62766;62.622;17.912;2023-03-14T04:15:11;96521.65;;;0.71;65.46
44351;BME280;62766;62.622;17.912;2023-03-14T04:17:40;96529.96;;;0.66;65.17
44351;BME280;62766;62.622;17.912;2023-03-14T04:20:09;96544.07;;;0.61;65.54
44351;BME280;62766;62.622;17.912;2023-03-14T04:22:39;96551.20;;;0.58;65.48
44351;BME280;62766;62.622;17.912;2023-03-14T04:25:07;96557.12;;;0.63;65.58
44351;BME280;62766;62.622;17.912;2023-03-14T04:27:35;96565.69;;;0.59;65.39
44351;BME280;62766;62.622;17.912;2023-03-14T04:30:04;96570.29;;;0.56;65.54
44351;BME280;62766;62.622;17.912;2023-03-14T04:32:34;96571.73;;;0.57;65.19
44351;BME280;62766;62.622;17.912;2023-03-14T04:35:03;96566.04;;;0.55;65.33
44351;BME280;62766;62.622;17.912;2023-03-14T04:37:31;96560.07;;;0.51;65.41
44351;BME280;62766;62.622;17.912;2023-03-14T04:39:59;96561.54;;;0.48;65.30
44351;BME280;62766;62.622;17.912;2023-03-14T04:42:28;96567.07;;;0.59;65.31
44351;BME280;62766;62.622;17.912;2023-03-14T04:44:56;96576.97;;;0.49;65.01
44351;BME280;62766;62.622;17.912;2023-03-14T04:47:24;96580.56;;;0.56;64.68
44351;BME280;62766;62.622;17.912;2023-03-14T04:49:54;96581.56;;;0.50;64.58
44351;BME280;62766;62.622;17.912;2023-03-14T04:52:23;96586.79;;;0.46;64.72
44351;BME280;62766;62.622;17.912;2023-03-14T04:54:52;96596.03;;;0.49;64.84
44351;BME280;62766;62.622;17.912;2023-03-14T04:57:22;96599.80;;;0.34;64.64
44351;BME280;62766;62.622;17.912;2023-03-14T04:59:50;96604.08;;;0.39;65.03
44351;BME280;62766;62.622;17.912;2023-03-14T05:03:35;96612.34;;;0.30;65.38
44351;BME280;62766;62.622;17.912;2023-03-14T05:06:05;96616.89;;;0.27;65.25
44351;BME280;62766;62.622;17.912;2023-03-14T05:08:34;96620.71;;;0.30;64.93
44351;BME280;62766;62.622;17.912;2023-03-14T05:11:02;96621.93;;;0.34;64.93
44351;BME280;62766;62.622;17.912;2023-03-14T05:13:30;96627.51;;;0.40;64.50
44351;BME280;62766;62.622;17.912;2023-03-14T05:16:09;96633.49;;;0.43;64.62
44351;BME280;62766;62.622;17.912;2023-03-14T05:18:38;96638.53;;;0.46;64.10
44351;BME280;62766;62.622;17.912;2023-03-14T05:21:06;96639.47;;;0.54;64.11
44351;BME280;62766;62.622;17.912;2023-03-14T05:23:35;96636.77;;;0.48;63.86
44351;BME280;62766;62.622;17.912;2023-03-14T05:26:06;96639.30;;;0.65;63.84
44351;BME280;62766;62.622;17.912;2023-03-14T05:28:34;96641.41;;;0.62;63.52
44351;BME280;62766;62.622;17.912;2023-03-14T05:31:06;96647.19;;;0.48;63.43
44351;BME280;62766;62.622;17.912;2023-03-14T05:33:37;96653.28;;;0.60;63.36
44351;BME280;62766;62.622;17.912;2023-03-14T05:36:07;96656.27;;;0.52;63.35
44351;BME280;62766;62.622;17.912;2023-03-14T05:38:37;96650.39;;;0.61;63.16
44351;BME280;62766;62.622;17.912;2023-03-14T05:41:06;96653.39;;;0.56;62.90
44351;BME280;62766;62.622;17.912;2023-03-14T05:43:36;96657.68;;;0.64;63.09
44351;BME280;62766;62.622;17.912;2023-03-14T05:46:05;96666.54;;;0.73;63.02
44351;BME280;62766;62.622;17.912;2023-03-14T05:48:33;96680.99;;;0.77;62.92
44351;BME280;62766;62.622;17.912;2023-03-14T05:51:02;96697.32;;;0.81;62.97
44351;BME280;62766;62.622;17.912;2023-03-14T05:53:30;96711.94;;;0.80;62.61
44351;BME280;62766;62.622;17.912;2023-03-14T05:55:59;96723.13;;;0.84;62.48
44351;BME280;62766;62.622;17.912;2023-03-14T05:58:27;96733.55;;;0.93;61.93
44351;BME280;62766;62.622;17.912;2023-03-14T06:00:56;96737.99;;;1.00;62.13
44351;BME280;62766;62.622;17.912;2023-03-14T06:03:24;96737.75;;;1.01;62.05
44351;BME280;62766;62.622;17.912;2023-03-14T06:05:52;96745.79;;;1.09;61.67
44351;BME280;62766;62.622;17.912;2023-03-14T06:08:21;96749.50;;;1.13;61.50
44351;BME280;62766;62.622;17.912;2023-03-14T06:10:49;96752.52;;;1.05;61.74
44351;BME280;62766;62.622;17.912;2023-03-14T06:13:18;96748.17;;;1.07;61.74
44351;BME280;62766;62.622;17.912;2023-03-14T06:15:46;96755.49;;;1.01;61.73
44351;BME280;62766;62.622;17.912;2023-03-14T06:18:15;96761.48;;;0.99;61.92
44351;BME280;62766;62.622;17.912;2023-03-14T06:20:43;96768.95;;;1.11;62.03
44351;BME280;62766;62.622;17.912;2023-03-14T06:23:12;96774.99;;;1.14;61.37
44351;BME280;62766;62.622;17.912;2023-03-14T06:25:40;96776.72;;;1.30;61.46
44351;BME280;62766;62.622;17.912;2023-03-14T06:28:09;96778.15;;;1.20;61.09
44351;BME280;62766;62.622;17.912;2023-03-14T06:30:37;96772.84;;;1.18;60.87
44351;BME280;62766;62.622;17.912;2023-03-14T06:33:06;96775.95;;;1.26;60.75
44351;BME280;62766;62.622;17.912;2023-03-14T06:35:35;96765.24;;;1.27;60.34
44351;BME280;62766;62.622;17.912;2023-03-14T06:38:04;96759.46;;;1.48;60.62
44351;BME280;62766;62.622;17.912;2023-03-14T06:40:33;96759.35;;;1.63;59.68
44351;BME280;62766;62.622;17.912;2023-03-14T06:43:01;96764.00;;;1.70;59.78
44351;BME280;62766;62.622;17.912;2023-03-14T06:45:30;96773.71;;;1.78;59.01
44351;BME280;62766;62.622;17.912;2023-03-14T06:47:58;96784.67;;;1.99;58.88
44351;BME280;62766;62.622;17.912;2023-03-14T06:50:27;96798.12;;;1.94;58.43
44351;BME280;62766;62.622;17.912;2023-03-14T06:52:55;96800.93;;;2.12;58.00
44351;BME280;62766;62.622;17.912;2023-03-14T06:55:23;96797.28;;;2.27;57.19
44351;BME280;62766;62.622;17.912;2023-03-14T06:57:52;96796.50;;;2.14;56.96
44351;BME280;62766;62.622;17.912;2023-03-14T07:00:21;96796.11;;;2.24;56.97
44351;BME280;62766;62.622;17.912;2023-03-14T07:02:49;96798.25;;;2.32;56.69
44351;BME280;62766;62.622;17.912;2023-03-14T07:05:17;96801.81;;;2.32;56.09
44351;BME280;62766;62.622;17.912;2023-03-14T07:07:46;96810.00;;;2.37;56.24
44351;BME280;62766;62.622;17.912;2023-03-14T07:10:14;96823.29;;;2.42;55.12
44351;BME280;62766;62.622;17.912;2023-03-14T07:12:43;96826.14;;;2.14;55.70
44351;BME280;62766;62.622;17.912;2023-03-14T07:15:11;96827.03;;;2.21;55.63
44351;BME280;62766;62.622;17.912;2023-03-14T07:17:39;96835.10;;;2.22;55.54
44351;BME280;62766;62.622;17.912;2023-03-14T07:20:09;96843.95;;;2.32;55.00
44351;BME280;62766;62.622;17.912;2023-03-14T07:22:38;96855.55;;;2.21;55.06
44351;BME280;62766;62.622;17.912;2023-03-14T07:25:07;96858.39;;;2.07;55.65
44351;BME280;62766;62.622;17.912;2023-03-14T07:27:37;96861.00;;;2.16;55.50
44351;BME280;62766;62.622;17.912;2023-03-14T07:30:06;96872.43;;;2.21;55.44
44351;BME280;62766;62.622;17.912;2023-03-14T07:32:36;96878.13;;;2.41;55.39
44351;BME280;62766;62.622;17.912;2023-03-14T07:35:07;96891.21;;;2.53;55.08
44351;BME280;62766;62.622;17.912;2023-03-14T07:37:37;96901.84;;;2.54;54.44
44351;BME280;62766;62.622;17.912;2023-03-14T07:40:07;96909.34;;;2.49;54.91
44351;BME280;62766;62.622;17.912;2023-03-14T07:42:36;96910.97;;;2.57;54.96
44351;BME280;62766;62.622;17.912;2023-03-14T07:45:06;96907.26;;;2.63;54.72
44351;BME280;62766;62.622;17.912;2023-03-14T07:47:36;96915.06;;;2.57;54.78
44351;BME280;62766;62.622;17.912;2023-03-14T07:50:07;96925.67;;;2.65;55.05
44351;BME280;62766;62.622;17.912;2023-03-14T07:52:36;96929.38;;;2.77;54.80
44351;BME280;62766;62.622;17.912;2023-03-14T07:55:06;96933.77;;;2.94;54.36
44351;BME280;62766;62.622;17.912;2023-03-14T07:57:37;96941.96;;;3.12;53.79
44351;BME280;62766;62.622;17.912;2023-03-14T08:00:07;96940.81;;;2.88;53.37
44351;BME280;62766;62.622;17.912;2023-03-14T08:02:37;96940.51;;;2.78;54.07
44351;BME280;62766;62.622;17.912;2023-03-14T08:05:07;96934.61;;;2.88;53.69
44351;BME280;62766;62.622;17.912;2023-03-14T08:07:37;96940.68;;;2.92;53.80
44351;BME280;62766;62.622;17.912;2023-03-14T08:10:06;96944.83;;;3.01;53.84
44351;BME280;62766;62.622;17.912;2023-03-14T08:12:36;96952.72;;;2.85;53.42
44351;BME280;62766;62.622;17.912;2023-03-14T08:15:06;96962.60;;;2.89;53.88
44351;BME280;62766;62.622;17.912;2023-03-14T08:17:37;96970.94;;;2.85;54.06
44351;BME280;62766;62.622;17.912;2023-03-14T08:20:06;96981.55;;;2.90;53.94
44351;BME280;62766;62.622;17.912;2023-03-14T08:22:37;97000.89;;;3.03;54.28
44351;BME280;62766;62.622;17.912;2023-03-14T08:25:07;97010.09;;;3.15;53.97
44351;BME280;62766;62.622;17.912;2023-03-14T08:27:35;97024.07;;;3.37;53.59
44351;BME280;62766;62.622;17.912;2023-03-14T08:30:08;97031.51;;;3.53;53.76
44351;BME280;62766;62.622;17.912;2023-03-14T08:32:42;97037.42;;;3.44;53.79
44351;BME280;62766;62.622;17.912;2023-03-14T08:35:11;97041.87;;;3.57;53.60
44351;BME280;62766;62.622;17.912;2023-03-14T08:37:41;97045.44;;;3.63;53.22
44351;BME280;62766;62.622;17.912;2023-03-14T08:40:10;97042.06;;;3.52;53.40
44351;BME280;62766;62.622;17.912;2023-03-14T08:42:40;97042.63;;;3.54;52.84
44351;BME280;62766;62.622;17.912;2023-03-14T08:45:11;97048.75;;;3.59;52.96
44351;BME280;62766;62.622;17.912;2023-03-14T08:47:40;97048.99;;;3.57;52.91
44351;BME280;62766;62.622;17.912;2023-03-14T08:50:09;97051.11;;;3.70;52.70
44351;BME280;62766;62.622;17.912;2023-03-14T08:52:38;97063.04;;;3.67;51.26
44351;BME280;62766;62.622;17.912;2023-03-14T08:55:08;97067.88;;;3.39;51.98
44351;BME280;62766;62.622;17.912;2023-03-14T08:57:37;97075.77;;;3.57;51.96
44351;BME280;62766;62.622;17.912;2023-03-14T09:00:08;97081.04;;;3.55;51.76
44351;BME280;62766;62.622;17.912;2023-03-14T09:02:37;97086.66;;;3.73;51.50
44351;BME280;62766;62.622;17.912;2023-03-14T09:05:08;97089.78;;;3.81;50.63
44351;BME280;62766;62.622;17.912;2023-03-14T09:07:38;97096.82;;;3.81;50.14
44351;BME280;62766;62.622;17.912;2023-03-14T09:10:09;97095.66;;;3.57;50.44
44351;BME280;62766;62.622;17.912;2023-03-14T09:12:38;97098.65;;;3.39;51.11
44351;BME280;62766;62.622;17.912;2023-03-14T09:15:07;97103.10;;;3.45;50.47
44351;BME280;62766;62.622;17.912;2023-03-14T09:17:42;97120.21;;;3.35;50.65
44351;BME280;62766;62.622;17.912;2023-03-14T09:20:12;97128.43;;;3.18;50.98
44351;BME280;62766;62.622;17.912;2023-03-14T09:22:40;97134.36;;;3.06;51.00
44351;BME280;62766;62.622;17.912;2023-03-14T09:25:09;97143.32;;;2.74;52.03
44351;BME280;62766;62.622;17.912;2023-03-14T09:27:43;97148.90;;;2.70;52.06
44351;BME280;62766;62.622;17.912;2023-03-14T09:30:13;97161.10;;;2.50;52.22
44351;BME280;62766;62.622;17.912;2023-03-14T09:32:41;97167.02;;;2.64;52.87
44351;BME280;62766;62.622;17.912;2023-03-14T09:35:14;97172.33;;;2.76;52.34
44351;BME280;62766;62.622;17.912;2023-03-14T09:37:43;97173.73;;;2.75;52.39
44351;BME280;62766;62.622;17.912;2023-03-14T09:40:13;97172.39;;;2.92;52.15
44351;BME280;62766;62.622;17.912;2023-03-14T09:42:43;97179.07;;;2.92;51.88
44351;BME280;62766;62.622;17.912;2023-03-14T09:45:14;97184.62;;;3.08;51.81
44351;BME280;62766;62.622;17.912;2023-03-14T09:47:45;97193.87;;;3.20;51.20
44351;BME280;62766;62.622;17.912;2023-03-14T09:50:16;97202.82;;;3.28;51.43
44351;BME280;62766;62.622;17.912;2023-03-14T09:52:46;97192.89;;;3.35;50.83
44351;BME280;62766;62.622;17.912;2023-03-14T09:55:18;97195.99;;;3.49;50.75
44351;BME280;62766;62.622;17.912;2023-03-14T09:57:49;97210.65;;;3.37;50.67
44351;BME280;62766;62.622;17.912;2023-03-14T10:00:21;97210.37;;;3.36;50.82
44351;BME280;62766;62.622;17.912;2023-03-14T10:02:53;97207.27;;;3.43;50.19
44351;BME280;62766;62.622;17.912;2023-03-14T10:05:24;97211.63;;;3.50;50.27
44351;BME280;62766;62.622;17.912;2023-03-14T10:07:54;97219.73;;;3.58;49.92
44351;BME280;62766;62.622;17.912;2023-03-14T10:10:25;97228.91;;;3.62;50.49
44351;BME280;62766;62.622;17.912;2023-03-14T10:12:56;97231.03;;;3.87;50.26
44351;BME280;62766;62.622;17.912;2023-03-14T10:15:30;97238.12;;;4.04;50.07
44351;BME280;62766;62.622;17.912;2023-03-14T10:18:01;97248.43;;;4.17;49.26
44351;BME280;62766;62.622;17.912;2023-03-14T10:20:33;97257.48;;;4.39;49.40
44351;BME280;62766;62.622;17.912;2023-03-14T10:23:04;97260.89;;;4.54;48.88
44351;BME280;62766;62.622;17.912;2023-03-14T10:25:40;97265.35;;;4.83;48.62
44351;BME280;62766;62.622;17.912;2023-03-14T10:28:23;97269.97;;;4.92;48.12
44351;BME280;62766;62.622;17.912;2023-03-14T10:30:54;97274.57;;;5.09;47.57
44351;BME280;62766;62.622;17.912;2023-03-14T10:33:26;97271.41;;;5.15;47.42
44351;BME280;62766;62.622;17.912;2023-03-14T10:35:57;97274.14;;;5.48;47.25
44351;BME280;62766;62.622;17.912;2023-03-14T10:38:27;97274.98;;;5.49;46.92
44351;BME280;62766;62.622;17.912;2023-03-14T10:40:57;97276.93;;;5.36;46.59
44351;BME280;62766;62.622;17.912;2023-03-14T10:43:31;97280.00;;;5.23;46.80
44351;BME280;62766;62.622;17.912;2023-03-14T10:46:06;97284.06;;;5.33;47.04
44351;BME280;62766;62.622;17.912;2023-03-14T10:48:38;97285.51;;;5.33;46.87
44351;BME280;62766;62.622;17.912;2023-03-14T10:51:09;97288.45;;;5.35;47.22
44351;BME280;62766;62.622;17.912;2023-03-14T10:53:40;97286.28;;;5.76;47.05
44351;BME280;62766;62.622;17.912;2023-03-14T10:56:12;97292.79;;;5.81;46.29
44351;BME280;62766;62.622;17.912;2023-03-14T10:58:46;97301.75;;;5.93;46.19
44351;BME280;62766;62.622;17.912;2023-03-14T11:03:19;97311.56;;;5.59;45.56
44351;BME280;62766;62.622;17.912;2023-03-14T11:05:52;97323.98;;;5.51;45.53
44351;BME280;62766;62.622;17.912;2023-03-14T11:08:27;97330.18;;;5.44;45.91
44351;BME280;62766;62.622;17.912;2023-03-14T11:11:09;97335.57;;;5.26;45.60
44351;BME280;62766;62.622;17.912;2023-03-14T11:13:43;97342.17;;;5.08;46.40
44351;BME280;62766;62.622;17.912;2023-03-14T11:16:19;97343.26;;;4.85;46.31
44351;BME280;62766;62.622;17.912;2023-03-14T11:19:03;97345.91;;;5.00;46.64
44351;BME280;62766;62.622;17.912;2023-03-14T11:21:44;97345.68;;;5.28;46.43
44351;BME280;62766;62.622;17.912;2023-03-14T11:24:27;97342.87;;;5.18;45.59
44351;BME280;62766;62.622;17.912;2023-03-14T11:27:06;97345.00;;;5.08;45.72
44351;BME280;62766;62.622;17.912;2023-03-14T11:29:39;97349.01;;;5.64;45.26
44351;BME280;62766;62.622;17.912;2023-03-14T11:32:13;97349.56;;;5.75;44.38
44351;BME280;62766;62.622;17.912;2023-03-14T11:34:50;97351.85;;;5.74;43.77
44351;BME280;62766;62.622;17.912;2023-03-14T11:37:25;97361.73;;;5.57;43.67
44351;BME280;62766;62.622;17.912;2023-03-14T11:40:00;97366.15;;;5.51;44.17
44351;BME280;62766;62.622;17.912;2023-03-14T11:42:32;97368.67;;;5.38;43.75
44351;BME280;62766;62.622;17.912;2023-03-14T11:45:02;97371.99;;;4.86;44.50
44351;BME280;62766;62.622;17.912;2023-03-14T11:47:35;97377.37;;;4.72;45.65
44351;BME280;62766;62.622;17.912;2023-03-14T11:50:13;97379.03;;;4.63;46.07
44351;BME280;62766;62.622;17.912;2023-03-14T11:52:47;97378.39;;;4.66;46.31
44351;BME280;62766;62.622;17.912;2023-03-14T11:55:22;97376.33;;;4.86;45.23
44351;BME280;62766;62.622;17.912;2023-03-14T11:57:56;97381.67;;;4.51;45.50
44351;BME280;62766;62.622;17.912;2023-03-14T12:00:27;97384.45;;;4.44;45.79
44351;BME280;62766;62.622;17.912;2023-03-14T12:03:01;97385.52;;;4.37;45.82
44351;BME280;62766;62.622;17.912;2023-03-14T12:05:38;97396.07;;;4.33;46.62
44351;BME280;62766;62.622;17.912;2023-03-14T12:08:24;97404.96;;;4.43;46.29
44351;BME280;62766;62.622;17.912;2023-03-14T12:10:58;97406.12;;;4.35;46.34
44351;BME280;62766;62.622;17.912;2023-03-14T12:13:30;97411.50;;;4.32;46.55
44351;BME280;62766;62.622;17.912;2023-03-14T12:16:04;97416.85;;;4.31;46.35
44351;BME280;62766;62.622;17.912;2023-03-14T12:18:36;97419.66;;;4.46;46.47
44351;BME280;62766;62.622;17.912;2023-03-14T12:21:08;97416.98;;;4.76;46.12
44351;BME280;62766;62.622;17.912;2023-03-14T12:23:43;97422.48;;;5.18;45.62
44351;BME280;62766;62.622;17.912;2023-03-14T12:26:16;97415.49;;;5.39;44.88
44351;BME280;62766;62.622;17.912;2023-03-14T12:28:50;97413.23;;;5.55;44.42
44351;BME280;62766;62.622;17.912;2023-03-14T12:32:07;97413.34;;;5.49;43.41
44351;BME280;62766;62.622;17.912;2023-03-14T12:34:39;97421.88;;;5.54;44.23
44351;BME280;62766;62.622;17.912;2023-03-14T12:37:19;97434.02;;;5.43;42.74
44351;BME280;62766;62.622;17.912;2023-03-14T12:40:12;97430.72;;;4.95;43.25
44351;BME280;62766;62.622;17.912;2023-03-14T12:42:50;97435.68;;;4.81;43.69
44351;BME280;62766;62.622;17.912;2023-03-14T12:45:24;97444.92;;;4.80;44.36
44351;BME280;62766;62.622;17.912;2023-03-14T12:48:00;97456.58;;;4.69;44.33
44351;BME280;62766;62.622;17.912;2023-03-14T12:50:35;97459.59;;;4.89;44.87
44351;BME280;62766;62.622;17.912;2023-03-14T12:53:52;97457.12;;;4.81;44.33
44351;BME280;62766;62.622;17.912;2023-03-14T12:56:28;97476.97;;;4.78;44.02
44351;BME280;62766;62.622;17.912;2023-03-14T12:59:15;97483.18;;;4.57;44.14
44351;BME280;62766;62.622;17.912;2023-03-14T13:01:52;97489.63;;;4.55;44.50
44351;BME280;62766;62.622;17.912;2023-03-14T13:04:28;97494.80;;;4.30;45.03
44351;BME280;62766;62.622;17.912;2023-03-14T13:06:58;97501.48;;;4.09;45.42
44351;BME280;62766;62.622;17.912;2023-03-14T13:09:48;97500.00;;;4.21;45.53
44351;BME280;62766;62.622;17.912;2023-03-14T13:12:23;97500.47;;;4.22;45.20
44351;BME280;62766;62.622;17.912;2023-03-14T13:14:54;97501.39;;;4.29;45.33
44351;BME280;62766;62.622;17.912;2023-03-14T13:17:30;97504.23;;;4.10;45.27
44351;BME280;62766;62.622;17.912;2023-03-14T13:20:03;97508.26;;;4.09;45.50
44351;BME280;62766;62.622;17.912;2023-03-14T13:22:34;97506.75;;;4.04;45.65